Time;durP1;ratioP1;P1;durP2;ratioP2;P2;SDS_P1;SDS_P2;PMS_P1;PMS_P2;Temp;Humidity;BMP_temperature;BMP_pressure;BME280_temperature;BME280_humidity;BME280_pressure;Samples;Min_cycle;Max_cycle;Signal;HPM_P1;HPM_P2
2021/01/31 00:01:51;;;;;;;19.53;17.63;;;6.20;99.90;;;;;;4968713;28;20416;-80
2021/01/31 00:04:18;;;;;;;20.08;18.00;;;6.20;99.90;;;;;;4963861;29;20458;-78
2021/01/31 00:06:43;;;;;;;18.67;16.80;;;6.20;99.90;;;;;;4962358;28;20517;-77
2021/01/31 00:09:10;;;;;;;21.60;19.27;;;6.20;99.90;;;;;;4964146;29;20432;-77
2021/01/31 00:11:36;;;;;;;21.30;19.10;;;6.20;99.90;;;;;;4963006;28;20420;-78
2021/01/31 00:14:02;;;;;;;20.88;18.73;;;6.20;99.90;;;;;;4957997;28;20417;-78
2021/01/31 00:16:29;;;;;;;22.00;19.90;;;6.10;99.90;;;;;;4953412;29;20410;-78
2021/01/31 00:18:55;;;;;;;21.92;19.73;;;6.00;99.90;;;;;;4957573;28;20402;-78
2021/01/31 00:21:21;;;;;;;23.90;21.40;;;6.10;99.90;;;;;;4955906;29;20445;-78
2021/01/31 00:23:47;;;;;;;24.40;21.92;;;6.00;99.90;;;;;;4956581;28;20414;-78
2021/01/31 00:26:13;;;;;;;22.93;20.63;;;5.90;99.90;;;;;;4958576;28;20465;-77
2021/01/31 00:28:39;;;;;;;22.23;20.13;;;5.80;99.90;;;;;;4950517;29;20461;-77
2021/01/31 00:31:05;;;;;;;20.45;18.35;;;5.90;99.90;;;;;;4954291;28;20476;-78
2021/01/31 00:33:31;;;;;;;23.60;21.20;;;6.00;99.90;;;;;;4955584;29;20413;-77
2021/01/31 00:35:57;;;;;;;22.70;20.40;;;5.90;99.90;;;;;;4953487;28;20402;-78
2021/01/31 00:38:27;;;;;;;25.97;23.20;;;5.90;99.90;;;;;;4953915;28;20488;-77
2021/01/31 00:40:53;;;;;;;27.47;24.50;;;5.70;99.90;;;;;;4955858;28;20421;-78
2021/01/31 00:43:19;;;;;;;25.65;23.05;;;5.60;99.90;;;;;;4955309;29;20420;-77
2021/01/31 00:45:45;;;;;;;27.17;24.38;;;5.60;99.90;;;;;;4958248;28;20410;-78
2021/01/31 00:48:12;;;;;;;29.15;26.08;;;5.50;99.90;;;;;;4963275;28;20429;-78
2021/01/31 00:50:39;;;;;;;28.73;25.73;;;5.40;99.90;;;;;;4961895;28;20402;-77
2021/01/31 00:53:06;;;;;;;29.25;26.25;;;5.40;99.90;;;;;;4959602;29;20445;-77
2021/01/31 00:55:33;;;;;;;31.50;28.02;;;5.40;99.90;;;;;;4956479;28;20414;-77
2021/01/31 00:57:59;;;;;;;24.77;22.30;;;5.30;99.90;;;;;;4958823;28;20413;-77
2021/01/31 01:00:28;;;;;;;27.50;24.63;;;5.20;99.90;;;;;;4956540;28;20418;-78
2021/01/31 01:02:54;;;;;;;27.00;23.95;;;5.30;99.90;;;;;;4958227;28;20473;-77
2021/01/31 01:05:22;;;;;;;30.10;27.00;;;5.30;99.90;;;;;;4959711;28;20829;-77
2021/01/31 01:07:48;;;;;;;31.60;28.17;;;5.40;99.90;;;;;;4959739;28;20453;-77
2021/01/31 01:10:17;;;;;;;30.77;27.40;;;5.30;99.90;;;;;;4958438;28;20433;-77
2021/01/31 01:12:43;;;;;;;32.20;28.70;;;5.30;99.90;;;;;;4968721;28;20481;-78
2021/01/31 01:15:11;;;;;;;29.90;26.42;;;5.30;99.90;;;;;;4964135;28;20825;-78
2021/01/31 01:17:37;;;;;;;35.22;30.48;;;5.30;99.90;;;;;;4961974;29;20410;-76
2021/01/31 01:20:07;;;;;;;35.13;31.33;;;5.30;99.90;;;;;;4961796;28;20437;-77
2021/01/31 01:22:33;;;;;;;29.00;25.65;;;5.20;99.90;;;;;;4959458;28;20918;-77
2021/01/31 01:25:02;;;;;;;29.38;26.27;;;5.30;99.90;;;;;;4957229;28;20406;-77
2021/01/31 01:27:29;;;;;;;33.22;29.55;;;5.30;99.90;;;;;;4957653;28;20421;-77
2021/01/31 01:29:57;;;;;;;36.25;32.30;;;5.40;99.90;;;;;;4964339;28;20424;-78
2021/01/31 01:32:23;;;;;;;36.67;32.88;;;5.20;99.90;;;;;;4960700;28;20457;-78
2021/01/31 01:34:49;;;;;;;35.63;31.92;;;5.20;99.90;;;;;;4964306;28;20390;-78
2021/01/31 01:37:16;;;;;;;43.15;36.30;;;5.10;99.90;;;;;;4953082;28;20401;-78
2021/01/31 01:39:41;;;;;;;43.25;37.15;;;5.00;99.90;;;;;;4964916;28;20926;-78
2021/01/31 01:42:09;;;;;;;44.00;38.33;;;4.90;99.90;;;;;;4958373;28;20414;-77
2021/01/31 01:44:36;;;;;;;43.47;38.78;;;4.80;99.90;;;;;;4958167;28;20421;-78
2021/01/31 01:47:08;;;;;;;40.53;34.88;;;4.80;99.90;;;;;;4957195;28;20425;-78
2021/01/31 01:49:37;;;;;;;35.00;31.20;;;4.80;99.90;;;;;;4954802;28;20411;-78
2021/01/31 01:52:09;;;;;;;32.17;28.75;;;4.90;99.90;;;;;;4955824;28;20849;-77
2021/01/31 01:54:42;;;;;;;30.83;27.63;;;5.10;99.90;;;;;;4954512;28;20505;-77
2021/01/31 01:57:11;;;;;;;31.67;28.38;;;5.30;99.90;;;;;;4952691;28;20412;-77
2021/01/31 01:59:38;;;;;;;29.00;25.95;;;5.30;99.90;;;;;;4959572;28;20460;-78
2021/01/31 02:02:13;;;;;;;32.15;28.65;;;5.40;99.90;;;;;;4950658;28;20424;-79
2021/01/31 02:04:40;;;;;;;29.45;26.35;;;5.40;99.90;;;;;;4953807;28;20968;-78
2021/01/31 02:07:06;;;;;;;28.15;25.17;;;5.40;99.90;;;;;;4955498;29;20406;-77
2021/01/31 02:09:32;;;;;;;26.90;24.10;;;5.50;99.90;;;;;;4954324;29;20410;-77
2021/01/31 02:12:02;;;;;;;31.33;28.13;;;5.50;99.90;;;;;;4956409;29;20769;-77
2021/01/31 02:14:29;;;;;;;28.48;25.48;;;5.50;99.90;;;;;;4952320;28;20411;-78
2021/01/31 02:16:58;;;;;;;27.10;24.30;;;5.50;99.90;;;;;;4954616;28;20809;-78
2021/01/31 02:20:02;;;;;;;31.93;28.53;;;5.50;99.90;;;;;;4951526;29;20510;-77
2021/01/31 02:23:00;;;;;;;27.45;24.65;;;5.50;99.90;;;;;;4966871;29;20790;-77
2021/01/31 02:25:52;;;;;;;28.10;25.17;;;5.50;99.90;;;;;;4985749;28;20439;-81
2021/01/31 02:28:37;;;;;;;27.13;24.40;;;5.50;99.90;;;;;;4967724;28;20921;-77
2021/01/31 02:31:30;;;;;;;26.65;23.75;;;5.60;99.90;;;;;;4964664;28;20895;-77
2021/01/31 02:33:59;;;;;;;29.35;26.23;;;5.50;99.90;;;;;;4960664;29;20976;-80
2021/01/31 02:36:42;;;;;;;28.13;25.08;;;5.40;99.90;;;;;;4953816;28;20432;-77
2021/01/31 02:39:19;;;;;;;33.30;29.73;;;5.40;99.90;;;;;;4963197;28;20413;-77
2021/01/31 02:41:52;;;;;;;28.80;25.80;;;5.40;99.90;;;;;;4956133;29;20445;-78
2021/01/31 02:44:22;;;;;;;29.80;26.70;;;5.40;99.90;;;;;;4952962;28;20794;-80
2021/01/31 02:46:53;;;;;;;28.63;25.65;;;5.40;99.90;;;;;;4955079;29;20406;-78
2021/01/31 02:49:23;;;;;;;30.10;26.90;;;5.40;99.90;;;;;;4953937;29;20406;-78
2021/01/31 02:51:55;;;;;;;28.23;25.27;;;5.40;99.90;;;;;;4954510;29;20410;-78
2021/01/31 02:54:27;;;;;;;27.75;24.70;;;5.40;99.90;;;;;;4967118;28;20930;-78
2021/01/31 02:56:59;;;;;;;27.98;25.08;;;5.40;99.90;;;;;;4958765;28;20425;-79
2021/01/31 02:59:32;;;;;;;28.02;25.13;;;5.50;99.90;;;;;;4958706;28;20485;-78
2021/01/31 03:02:02;;;;;;;27.40;24.55;;;5.50;99.90;;;;;;4957729;29;20417;-78
2021/01/31 03:04:35;;;;;;;30.75;27.05;;;5.50;99.90;;;;;;4954383;29;20414;-77
2021/01/31 03:07:07;;;;;;;28.92;25.50;;;5.60;99.90;;;;;;4954968;29;20504;-78
2021/01/31 03:09:36;;;;;;;32.13;27.25;;;5.60;99.90;;;;;;4953697;29;20972;-78
2021/01/31 03:12:06;;;;;;;32.72;28.35;;;5.50;99.90;;;;;;4948854;29;20460;-78
2021/01/31 03:14:38;;;;;;;31.87;27.70;;;5.50;99.90;;;;;;4950038;29;20537;-78
2021/01/31 03:17:11;;;;;;;31.42;26.85;;;5.50;99.90;;;;;;4962855;28;20418;-78
2021/01/31 03:19:43;;;;;;;29.35;25.80;;;5.40;99.90;;;;;;4968573;28;20413;-79
2021/01/31 03:22:13;;;;;;;31.10;27.73;;;5.40;99.90;;;;;;4968868;29;20430;-78
2021/01/31 03:24:44;;;;;;;30.35;26.73;;;5.40;99.90;;;;;;4958334;29;20465;-78
2021/01/31 03:27:14;;;;;;;29.25;26.08;;;5.40;99.90;;;;;;4955009;28;20450;-78
2021/01/31 03:29:41;;;;;;;30.60;27.25;;;5.40;99.90;;;;;;4957066;29;20410;-77
2021/01/31 03:32:11;;;;;;;29.92;26.65;;;5.40;99.90;;;;;;4956968;28;20464;-78
2021/01/31 03:34:43;;;;;;;30.27;26.30;;;5.40;99.90;;;;;;4959287;28;20410;-78
2021/01/31 03:37:12;;;;;;;35.35;30.38;;;5.40;99.90;;;;;;4957839;28;20425;-78
2021/01/31 03:39:42;;;;;;;31.38;28.08;;;5.40;99.90;;;;;;4957960;29;20390;-78
2021/01/31 03:42:08;;;;;;;28.80;25.80;;;5.40;99.90;;;;;;4960793;28;20418;-77
2021/01/31 03:44:42;;;;;;;29.58;25.95;;;5.40;99.90;;;;;;4950648;29;20416;-78
2021/01/31 03:47:13;;;;;;;28.40;25.48;;;5.40;99.90;;;;;;4952678;28;20464;-77
2021/01/31 03:49:45;;;;;;;28.20;25.17;;;5.40;99.90;;;;;;4951891;28;20504;-77
2021/01/31 03:52:10;;;;;;;27.88;24.92;;;5.50;99.90;;;;;;4972267;29;20931;-77
2021/01/31 03:54:37;;;;;;;32.23;28.83;;;5.50;99.90;;;;;;4954389;28;20479;-77
2021/01/31 03:57:07;;;;;;;28.02;25.20;;;5.50;99.90;;;;;;4959683;28;20425;-82
2021/01/31 03:59:39;;;;;;;26.48;23.77;;;5.50;99.90;;;;;;4976811;29;20489;-78
2021/01/31 04:02:07;;;;;;;28.55;25.55;;;5.50;99.90;;;;;;4975339;28;20426;-81
2021/01/31 04:04:37;;;;;;;27.70;24.80;;;5.50;99.90;;;;;;4954354;28;20449;-78
2021/01/31 04:07:06;;;;;;;28.87;25.87;;;5.50;99.90;;;;;;4967140;28;20468;-77
2021/01/31 04:09:34;;;;;;;33.25;29.65;;;5.50;99.90;;;;;;4961473;28;20886;-77
2021/01/31 04:12:02;;;;;;;33.15;29.55;;;5.50;99.90;;;;;;4953453;28;20501;-77
2021/01/31 04:14:36;;;;;;;29.75;26.65;;;5.40;99.90;;;;;;4953223;29;20413;-77
2021/01/31 04:17:02;;;;;;;32.08;28.67;;;5.30;99.90;;;;;;4960733;28;20417;-78
2021/01/31 04:19:27;;;;;;;34.07;30.10;;;5.30;99.90;;;;;;4952742;28;20502;-77
2021/01/31 04:21:54;;;;;;;29.00;25.90;;;5.30;99.90;;;;;;4949934;28;20506;-77
2021/01/31 04:24:20;;;;;;;33.88;27.90;;;5.30;99.90;;;;;;4953515;29;20919;-77
2021/01/31 04:26:46;;;;;;;31.73;26.92;;;;;;;;;;4954101;29;20422;-78
2021/01/31 04:29:12;;;;;;;28.67;25.58;;;5.30;99.90;;;;;;4954252;28;20477;-78
2021/01/31 04:31:38;;;;;;;30.17;26.27;;;5.50;99.90;;;;;;4953642;28;20402;-78
2021/01/31 04:34:04;;;;;;;29.10;25.58;;;5.50;99.90;;;;;;4957837;29;20437;-78
2021/01/31 04:36:30;;;;;;;28.08;25.08;;;5.50;99.90;;;;;;4964536;28;20441;-81
2021/01/31 04:38:56;;;;;;;27.13;24.33;;;5.40;99.90;;;;;;4966224;28;20418;-80
2021/01/31 04:41:28;;;;;;;29.38;26.25;;;5.40;99.90;;;;;;4977432;28;20429;-79
2021/01/31 04:43:54;;;;;;;30.17;26.50;;;5.40;99.90;;;;;;4968574;28;20413;-80
2021/01/31 04:46:22;;;;;;;27.17;24.27;;;5.50;99.90;;;;;;4957822;29;20406;-78
2021/01/31 04:49:01;;;;;;;29.58;26.38;;;5.40;99.90;;;;;;4967582;28;20493;-79
2021/01/31 04:51:36;;;;;;;30.88;27.50;;;5.40;99.90;;;;;;4975308;29;20406;-79
2021/01/31 04:54:23;;;;;;;29.85;26.45;;;5.40;99.90;;;;;;4977767;28;20414;-79
2021/01/31 04:57:02;;;;;;;35.47;27.50;;;5.40;99.90;;;;;;4977625;28;20418;-80
2021/01/31 04:59:32;;;;;;;69.07;38.13;;;5.30;99.90;;;;;;4971265;28;20417;-80
2021/01/31 05:02:04;;;;;;;58.05;37.50;;;5.20;99.90;;;;;;4975044;29;20453;-79
2021/01/31 05:04:33;;;;;;;43.65;32.53;;;5.10;99.90;;;;;;4970855;28;20421;-80
2021/01/31 05:07:05;;;;;;;68.55;36.70;;;5.10;99.90;;;;;;4970691;28;20757;-80
2021/01/31 05:09:31;;;;;;;88.82;42.20;;;5.10;99.90;;;;;;4965278;28;20436;-80
2021/01/31 05:12:04;;;;;;;49.58;34.65;;;5.00;99.90;;;;;;4976081;28;20401;-79
2021/01/31 05:15:01;;;;;;;53.08;34.75;;;5.10;99.90;;;;;;4978680;29;20860;-82
2021/01/31 05:17:28;;;;;;;50.58;34.08;;;5.20;99.90;;;;;;4976557;29;20441;-80
2021/01/31 05:19:56;;;;;;;63.00;37.92;;;5.20;99.90;;;;;;4976101;28;20921;-80
2021/01/31 05:22:26;;;;;;;45.85;33.95;;;5.10;99.90;;;;;;4993394;28;20422;-79
2021/01/31 05:24:53;;;;;;;51.97;37.65;;;5.10;99.90;;;;;;4981570;28;20770;-79
2021/01/31 05:27:21;;;;;;;44.47;34.90;;;;;;;;;;4988637;28;20416;-79
2021/01/31 05:29:47;;;;;;;51.47;38.58;;;;;;;;;;4972532;29;20409;-79
2021/01/31 05:32:15;;;;;;;52.67;40.50;;;5.00;99.90;;;;;;4972028;28;20794;-77
2021/01/31 05:34:43;;;;;;;60.50;42.10;;;4.70;99.90;;;;;;4958151;28;20409;-77
2021/01/31 05:37:11;;;;;;;43.95;35.95;;;4.70;99.90;;;;;;4955508;28;20492;-76
2021/01/31 05:39:41;;;;;;;42.22;33.10;;;4.80;99.90;;;;;;4956299;29;20913;-77
2021/01/31 05:42:10;;;;;;;45.33;35.40;;;4.90;99.90;;;;;;4955151;29;20474;-77
2021/01/31 05:44:37;;;;;;;41.25;32.55;;;4.90;99.90;;;;;;4970703;29;20397;-80
2021/01/31 05:47:16;;;;;;;39.63;30.63;;;5.10;99.90;;;;;;4976737;28;20423;-79
2021/01/31 05:49:43;;;;;;;39.05;31.30;;;5.20;99.90;;;;;;4977368;28;20413;-79
2021/01/31 05:52:27;;;;;;;41.85;30.52;;;5.20;99.90;;;;;;4976459;28;20436;-78
2021/01/31 05:54:54;;;;;;;39.40;29.35;;;5.30;99.90;;;;;;4968369;28;20440;-80
2021/01/31 05:57:23;;;;;;;37.83;29.58;;;5.30;99.90;;;;;;4974688;28;20697;-79
2021/01/31 05:59:50;;;;;;;41.63;32.00;;;5.30;99.90;;;;;;4973664;29;20413;-79
2021/01/31 06:02:24;;;;;;;43.13;32.95;;;5.30;99.90;;;;;;4976105;28;20418;-80
2021/01/31 06:05:10;;;;;;;43.55;32.38;;;5.20;99.90;;;;;;4975452;28;20423;-79
2021/01/31 06:07:38;;;;;;;42.47;32.20;;;5.10;99.90;;;;;;4977354;28;20416;-78
2021/01/31 06:10:10;;;;;;;50.03;34.42;;;5.10;99.90;;;;;;4975808;28;20827;-78
2021/01/31 06:12:37;;;;;;;42.93;31.93;;;5.10;99.90;;;;;;4977600;28;20409;-79
2021/01/31 06:15:07;;;;;;;40.90;30.83;;;5.10;99.90;;;;;;4976248;28;20952;-79
2021/01/31 06:17:34;;;;;;;42.03;32.13;;;5.10;99.90;;;;;;4975950;29;20394;-79
2021/01/31 06:20:04;;;;;;;51.17;36.77;;;5.00;99.90;;;;;;4970999;28;20424;-79
2021/01/31 06:22:38;;;;;;;54.72;37.80;;;5.00;99.90;;;;;;4979625;28;20433;-79
2021/01/31 06:25:05;;;;;;;62.03;40.73;;;;;;;;;;4974054;28;20495;-79
2021/01/31 06:27:34;;;;;;;67.10;42.45;;;4.90;99.90;;;;;;4978018;29;20413;-79
2021/01/31 06:30:20;;;;;;;62.55;42.10;;;4.60;99.90;;;;;;4975254;28;20432;-79
2021/01/31 06:32:49;;;;;;;54.92;38.50;;;4.60;99.90;;;;;;4969675;28;20479;-79
2021/01/31 06:35:17;;;;;;;49.45;36.75;;;4.70;99.90;;;;;;4974751;29;20461;-83
2021/01/31 06:38:09;;;;;;;47.53;35.30;;;4.80;99.90;;;;;;4975305;29;20490;-80
2021/01/31 06:40:43;;;;;;;43.15;33.28;;;4.80;99.90;;;;;;4971678;29;20413;-79
2021/01/31 06:43:29;;;;;;;42.67;32.37;;;4.90;99.90;;;;;;4966892;28;20458;-79
2021/01/31 06:46:01;;;;;;;38.73;30.87;;;5.00;99.90;;;;;;4965038;29;20464;-80
2021/01/31 06:48:53;;;;;;;43.75;32.63;;;5.00;99.90;;;;;;4956927;29;20429;-80
2021/01/31 06:51:41;;;;;;;43.72;32.72;;;5.10;99.90;;;;;;4959825;29;20409;-80
2021/01/31 06:54:36;;;;;;;42.88;32.85;;;5.10;99.90;;;;;;4960431;29;20408;-79
2021/01/31 06:57:51;;;;;;;42.10;31.48;;;5.10;99.90;;;;;;4953452;29;20424;-77
2021/01/31 07:00:41;;;;;;;43.80;32.72;;;5.10;99.90;;;;;;4923164;28;20429;-78
2021/01/31 07:03:40;;;;;;;42.35;30.92;;;5.10;99.90;;;;;;4954686;29;20456;-77
2021/01/31 07:06:40;;;;;;;39.00;30.20;;;5.10;99.90;;;;;;4972929;28;20769;-77
2021/01/31 07:09:19;;;;;;;46.40;33.70;;;5.10;99.90;;;;;;4925587;28;20436;-77
2021/01/31 07:11:53;;;;;;;46.47;33.45;;;5.00;99.90;;;;;;4946352;28;20410;-77
2021/01/31 07:14:44;;;;;;;42.87;31.83;;;5.10;99.90;;;;;;4952153;29;20922;-77
2021/01/31 07:17:23;;;;;;;45.22;32.63;;;5.20;99.90;;;;;;4947443;28;20464;-77
2021/01/31 07:19:55;;;;;;;49.75;34.72;;;5.10;99.90;;;;;;4950318;29;20414;-77
2021/01/31 07:22:31;;;;;;;44.88;31.70;;;5.00;99.90;;;;;;4948630;29;20434;-79
2021/01/31 07:25:01;;;;;;;40.80;30.13;;;5.00;99.90;;;;;;4957891;29;20530;-79
2021/01/31 07:27:34;;;;;;;41.65;29.92;;;5.00;99.90;;;;;;4957683;29;20417;-77
2021/01/31 07:30:09;;;;;;;34.58;26.63;;;5.10;99.90;;;;;;4956261;28;20469;-79
2021/01/31 07:32:51;;;;;;;38.10;28.17;;;5.10;99.90;;;;;;4949837;28;20882;-78
2021/01/31 07:35:22;;;;;;;39.93;27.97;;;5.10;99.90;;;;;;4953344;28;20414;-77
2021/01/31 07:37:52;;;;;;;40.60;31.00;;;5.10;99.90;;;;;;4956929;28;20493;-78
2021/01/31 07:40:21;;;;;;;47.25;33.85;;;5.10;99.90;;;;;;4965646;28;20419;-80
2021/01/31 07:42:51;;;;;;;45.42;32.00;;;4.90;99.90;;;;;;4966634;29;20477;-79
2021/01/31 07:45:20;;;;;;;43.10;30.05;;;4.90;99.90;;;;;;4966288;29;20455;-80
2021/01/31 07:47:47;;;;;;;39.28;28.77;;;4.90;99.90;;;;;;4968356;29;20773;-80
2021/01/31 07:50:36;;;;;;;38.97;29.48;;;4.90;99.90;;;;;;4969453;29;20498;-81
2021/01/31 07:53:03;;;;;;;40.30;28.58;;;4.90;99.90;;;;;;4968384;28;20449;-79
2021/01/31 07:55:38;;;;;;;40.60;29.67;;;5.00;99.90;;;;;;4970923;28;22269;-80
2021/01/31 07:58:11;;;;;;;41.95;29.85;;;5.00;99.90;;;;;;4967493;29;20393;-79
2021/01/31 08:00:41;;;;;;;39.90;30.10;;;5.00;99.90;;;;;;4969036;28;20496;-80
2021/01/31 08:03:23;;;;;;;46.70;32.87;;;5.00;99.90;;;;;;4963667;29;20465;-79
2021/01/31 08:05:57;;;;;;;41.90;30.13;;;5.00;99.90;;;;;;4967515;28;20413;-79
2021/01/31 08:08:46;;;;;;;41.35;29.70;;;5.00;99.90;;;;;;4965914;28;20446;-79
2021/01/31 08:11:52;;;;;;;40.17;29.23;;;5.00;99.90;;;;;;4983071;28;20434;-80
2021/01/31 08:14:51;;;;;;;39.97;28.90;;;5.10;99.90;;;;;;4970297;29;20778;-79
2021/01/31 08:17:37;;;;;;;41.85;30.17;;;5.20;99.90;;;;;;4968492;29;20412;-79
2021/01/31 08:20:37;;;;;;;37.55;28.23;;;5.20;99.90;;;;;;4967096;28;20886;-79
2021/01/31 08:23:43;;;;;;;40.28;29.85;;;5.20;99.90;;;;;;4963194;28;20465;-79
2021/01/31 08:26:46;;;;;;;39.67;28.60;;;5.20;99.90;;;;;;4961946;29;20517;-78
2021/01/31 08:29:21;;;;;;;38.13;28.35;;;5.20;99.90;;;;;;4966036;28;20414;-79
2021/01/31 08:32:14;;;;;;;39.60;28.17;;;5.20;99.90;;;;;;4962964;28;20845;-79
2021/01/31 08:35:16;;;;;;;39.75;29.38;;;5.20;99.90;;;;;;4963659;29;20924;-78
2021/01/31 08:37:42;;;;;;;41.08;29.80;;;5.30;99.90;;;;;;4957352;29;20433;-79
2021/01/31 08:40:18;;;;;;;42.33;30.92;;;5.10;99.90;;;;;;4964849;28;20821;-79
2021/01/31 08:42:54;;;;;;;41.90;30.98;;;5.20;99.90;;;;;;4969746;28;20798;-80
2021/01/31 08:45:20;;;;;;;43.75;31.20;;;5.10;99.90;;;;;;4973984;28;20425;-81
2021/01/31 08:47:46;;;;;;;43.10;30.98;;;5.10;99.90;;;;;;4968285;29;20486;-77
2021/01/31 08:50:17;;;;;;;45.60;31.13;;;5.20;99.90;;;;;;4969363;28;20478;-82
2021/01/31 08:52:44;;;;;;;45.55;30.63;;;5.20;99.90;;;;;;4969127;28;20423;-82
2021/01/31 08:55:10;;;;;;;42.47;30.98;;;5.20;99.90;;;;;;4962245;28;20444;-78
2021/01/31 08:57:37;;;;;;;42.03;30.20;;;5.20;99.90;;;;;;4963383;28;20453;-76
2021/01/31 09:00:07;;;;;;;44.10;31.38;;;5.20;99.90;;;;;;4959864;29;20427;-77
2021/01/31 09:02:34;;;;;;;41.53;29.25;;;5.20;99.90;;;;;;4966910;29;20422;-80
2021/01/31 09:05:09;;;;;;;39.50;29.50;;;5.30;99.90;;;;;;4983966;28;20447;-78
2021/01/31 09:07:37;;;;;;;44.63;31.60;;;5.20;99.90;;;;;;4966327;28;20417;-78
2021/01/31 09:10:09;;;;;;;42.58;31.73;;;5.30;99.90;;;;;;4974228;28;20952;-81
2021/01/31 09:12:36;;;;;;;44.85;31.90;;;5.30;99.90;;;;;;4973831;29;20393;-79
2021/01/31 09:15:24;;;;;;;53.90;35.30;;;5.50;99.90;;;;;;4972873;28;20398;-81
2021/01/31 09:17:51;;;;;;;47.27;33.00;;;5.30;99.90;;;;;;4966415;28;20951;-83
2021/01/31 09:20:25;;;;;;;45.78;32.35;;;5.40;99.90;;;;;;4968264;28;20511;-78
2021/01/31 09:22:54;;;;;;;42.13;31.67;;;5.40;99.90;;;;;;4968240;28;20771;-77
2021/01/31 09:25:23;;;;;;;52.40;36.03;;;5.40;99.90;;;;;;4974085;28;20513;-81
2021/01/31 09:28:07;;;;;;;50.35;34.90;;;5.30;99.90;;;;;;4976479;28;20424;-79
2021/01/31 09:30:34;;;;;;;48.95;35.25;;;5.40;99.90;;;;;;4971442;28;20486;-82
2021/01/31 09:33:05;;;;;;;45.05;33.33;;;5.40;99.90;;;;;;4976794;29;20437;-82
2021/01/31 09:35:33;;;;;;;48.33;34.97;;;5.60;99.90;;;;;;4978168;28;20406;-80
2021/01/31 09:38:18;;;;;;;44.85;31.95;;;5.70;99.90;;;;;;4978849;28;20405;-83
2021/01/31 09:40:45;;;;;;;43.10;31.38;;;5.80;99.90;;;;;;4978507;28;20434;-83
2021/01/31 09:43:18;;;;;;;38.72;28.58;;;5.60;99.90;;;;;;4978578;28;21030;-82
2021/01/31 09:45:47;;;;;;;34.10;25.98;;;5.80;99.90;;;;;;4978228;28;20425;-82
2021/01/31 09:48:17;;;;;;;36.13;26.73;;;5.90;99.90;;;;;;4977463;28;20449;-82
2021/01/31 09:50:45;;;;;;;36.30;27.55;;;6.20;99.90;;;;;;4978336;28;20398;-83
2021/01/31 09:53:17;;;;;;;36.97;27.58;;;;;;;;;;4977823;28;20453;-80
2021/01/31 09:55:44;;;;;;;35.42;25.38;;;;;;;;;;4978319;28;20398;-81
2021/01/31 09:58:18;;;;;;;33.20;25.77;;;;;;;;;;4978464;28;20437;-80
2021/01/31 10:00:45;;;;;;;36.22;27.77;;;;;;;;;;4977782;28;20425;-81
2021/01/31 10:03:14;;;;;;;30.70;23.90;;;;;;;;;;4978213;28;20513;-82
2021/01/31 10:05:40;;;;;;;30.58;23.88;;;;;;;;;;4978082;28;20420;-82
2021/01/31 10:08:08;;;;;;;33.17;24.80;;;;;;;;;;4977903;28;20390;-82
2021/01/31 10:10:39;;;;;;;27.88;21.52;;;;;;;;;;4977932;28;20860;-83
2021/01/31 10:13:17;;;;;;;27.88;20.73;;;;;;;;;;4978572;28;20437;-82
2021/01/31 10:15:50;;;;;;;27.20;20.33;;;;;;;;;;4976317;28;20406;-81
2021/01/31 10:18:25;;;;;;;29.65;22.65;;;;;;;;;;4977698;28;20436;-80
2021/01/31 10:21:11;;;;;;;30.17;22.80;;;;;;;;;;4977861;28;20421;-80
2021/01/31 10:23:37;;;;;;;30.25;22.30;;;;;;;;;;4977768;28;20416;-81
2021/01/31 10:26:05;;;;;;;28.95;22.52;;;;;;;;;;4978514;28;20417;-81
2021/01/31 10:28:33;;;;;;;28.65;22.33;;;;;;;;;;4978149;28;20398;-80
2021/01/31 10:30:59;;;;;;;30.25;22.88;;;;;;;;;;4975097;28;21175;-81
2021/01/31 10:33:40;;;;;;;29.58;22.55;;;;;;;;;;4977608;28;20425;-82
2021/01/31 10:36:28;;;;;;;28.48;23.25;;;;;;;;;;4971888;28;20414;-83
2021/01/31 10:38:56;;;;;;;30.87;24.20;;;;;;;;;;4974707;28;20477;-82
2021/01/31 10:41:22;;;;;;;29.67;24.43;;;;;;;;;;4973764;28;20429;-80
2021/01/31 10:43:59;;;;;;;32.67;25.40;;;;;;;;;;4976890;28;20405;-82
2021/01/31 10:46:25;;;;;;;34.20;26.30;;;;;;;;;;4989774;28;20540;-81
2021/01/31 10:48:51;;;;;;;33.47;26.08;;;;;;;;;;4975463;28;20437;-83
2021/01/31 10:51:18;;;;;;;30.15;23.63;;;;;;;;;;4976918;28;20453;-81
2021/01/31 10:53:44;;;;;;;29.40;23.52;;;;;;;;;;4977597;28;20961;-81
2021/01/31 10:56:10;;;;;;;29.65;23.15;;;8.40;99.90;;;;;;4977451;28;20405;-82
2021/01/31 10:58:37;;;;;;;29.83;24.08;;;;;;;;;;4976016;28;20500;-82
2021/01/31 11:01:04;;;;;;;31.85;24.52;;;;;;;;;;4978152;28;20413;-83
2021/01/31 11:03:30;;;;;;;30.05;23.85;;;;;;;;;;4977596;28;20421;-83
2021/01/31 11:05:56;;;;;;;30.63;24.40;;;;;;;;;;4976837;28;20422;-81
2021/01/31 11:08:24;;;;;;;29.52;23.38;;;;;;;;;;4978346;28;20425;-80
2021/01/31 11:10:50;;;;;;;30.63;23.88;;;;;;;;;;4977683;28;20968;-83
2021/01/31 13:21:05;;;;;;;5.72;5.22;;;12.70;94.00;;;;;;4988944;28;20425;-79
2021/01/31 13:23:31;;;;;;;5.75;5.15;;;12.60;94.30;;;;;;4980980;28;20423;-80
2021/01/31 13:25:58;;;;;;;5.72;5.20;;;13.00;93.40;;;;;;4968522;28;20408;-79
2021/01/31 13:28:24;;;;;;;4.80;4.38;;;;;;;;;;4962624;28;20431;-80
2021/01/31 13:30:50;;;;;;;5.88;5.28;;;;;;;;;;4987046;28;20411;-79
2021/01/31 13:33:17;;;;;;;6.25;5.65;;;;;;;;;;4982653;28;20400;-79
2021/01/31 13:35:42;;;;;;;6.27;5.53;;;13.40;92.80;;;;;;4952300;28;20416;-80
2021/01/31 13:38:11;;;;;;;6.38;5.68;;;13.90;92.00;;;;;;4962508;28;20431;-80
2021/01/31 13:40:38;;;;;;;5.75;5.25;;;13.60;91.50;;;;;;4958395;28;20812;-80
2021/01/31 13:43:04;;;;;;;5.18;4.68;;;13.80;91.40;;;;;;4953943;29;20940;-80
2021/01/31 13:45:30;;;;;;;5.35;4.85;;;13.80;90.90;;;;;;4955217;29;20406;-80
2021/01/31 13:47:56;;;;;;;5.60;5.00;;;13.90;90.50;;;;;;4958609;28;20474;-80
2021/01/31 13:50:23;;;;;;;5.28;4.78;;;13.80;90.50;;;;;;4964520;28;20408;-80
2021/01/31 13:52:49;;;;;;;5.70;5.20;;;13.70;90.40;;;;;;4964929;28;20919;-78
2021/01/31 13:55:17;;;;;;;5.30;4.80;;;13.70;91.00;;;;;;4945005;28;20417;-81
2021/01/31 13:57:43;;;;;;;5.90;5.30;;;13.40;91.60;;;;;;4974649;28;20764;-79
2021/01/31 14:00:13;;;;;;;5.55;5.05;;;13.40;91.20;;;;;;4964282;28;20494;-81
2021/01/31 14:02:39;;;;;;;5.20;4.70;;;13.50;91.20;;;;;;4959447;28;20423;-80
2021/01/31 14:05:05;;;;;;;5.90;5.40;;;;;;;;;;4960037;28;20437;-79
2021/01/31 14:07:31;;;;;;;6.10;5.60;;;13.30;91.80;;;;;;4954810;29;20425;-80
2021/01/31 14:09:57;;;;;;;5.95;5.40;;;;;;;;;;4955993;28;20420;-80
2021/01/31 14:12:25;;;;;;;5.95;5.38;;;;;;;;;;4951819;28;20802;-79
2021/01/31 14:14:51;;;;;;;5.30;4.80;;;;;;;;;;4959033;28;20487;-80
2021/01/31 14:17:17;;;;;;;5.93;5.32;;;12.30;92.20;;;;;;4962508;28;20776;-80
2021/01/31 14:19:43;;;;;;;5.88;5.38;;;12.40;92.80;;;;;;4968724;28;20420;-82
2021/01/31 14:22:09;;;;;;;6.10;5.50;;;12.60;92.70;;;;;;4958929;28;20487;-80
2021/01/31 14:24:35;;;;;;;5.60;5.10;;;;;;;;;;4959928;28;20487;-79
2021/01/31 14:27:01;;;;;;;5.30;4.80;;;12.70;92.80;;;;;;4967878;28;20464;-80
2021/01/31 14:29:28;;;;;;;5.32;4.82;;;13.10;91.30;;;;;;4960662;28;20455;-80
2021/01/31 14:31:56;;;;;;;6.15;5.55;;;13.00;91.70;;;;;;4958302;28;20400;-79
2021/01/31 14:34:23;;;;;;;5.68;5.18;;;13.20;91.30;;;;;;4984137;28;20422;-80
2021/01/31 14:36:48;;;;;;;5.53;5.03;;;13.10;92.00;;;;;;4958797;28;20420;-80
2021/01/31 14:39:14;;;;;;;5.78;5.18;;;13.10;91.20;;;;;;4958308;28;20408;-79
2021/01/31 14:41:40;;;;;;;6.43;5.83;;;13.00;91.20;;;;;;4959839;28;20421;-79
2021/01/31 14:44:06;;;;;;;5.97;5.37;;;13.00;91.40;;;;;;4958262;28;20495;-79
2021/01/31 14:46:33;;;;;;;5.60;5.10;;;13.00;91.80;;;;;;4960732;28;20412;-80
2021/01/31 14:48:59;;;;;;;5.57;5.07;;;13.00;91.60;;;;;;4961962;28;20987;-80
2021/01/31 14:51:25;;;;;;;5.60;5.10;;;13.20;91.50;;;;;;4961677;28;20432;-79
2021/01/31 14:53:51;;;;;;;5.82;5.32;;;13.20;91.00;;;;;;4959493;28;20434;-80
2021/01/31 14:56:17;;;;;;;5.63;5.10;;;13.40;90.60;;;;;;4968648;28;20386;-79
2021/01/31 14:58:43;;;;;;;5.75;5.15;;;13.20;90.80;;;;;;4943756;28;20411;-79
2021/01/31 15:01:08;;;;;;;5.82;5.13;;;13.20;91.40;;;;;;4958128;28;20927;-80
2021/01/31 15:03:39;;;;;;;6.10;5.50;;;13.30;91.00;;;;;;4976705;28;20416;-78
2021/01/31 15:06:05;;;;;;;6.30;5.70;;;13.30;90.60;;;;;;4955182;28;20840;-80
2021/01/31 15:08:31;;;;;;;5.47;4.97;;;13.30;90.50;;;;;;4960064;28;20404;-80
2021/01/31 15:10:57;;;;;;;5.20;4.67;;;13.30;90.60;;;;;;4974963;28;20396;-79
2021/01/31 15:13:23;;;;;;;6.40;5.80;;;13.30;91.10;;;;;;4960011;28;20969;-80
2021/01/31 15:15:49;;;;;;;5.95;5.45;;;13.30;90.70;;;;;;4961063;28;20841;-79
2021/01/31 15:18:15;;;;;;;6.75;6.15;;;;;;;;;;4950130;29;20442;-80
2021/01/31 15:20:42;;;;;;;6.13;5.60;;;;;;;;;;4969041;28;20416;-80
2021/01/31 15:23:09;;;;;;;6.35;5.80;;;;;;;;;;4963306;28;20408;-80